Time;durP1;ratioP1;P1;durP2;ratioP2;P2;SDS_P1;SDS_P2;PMS_P1;PMS_P2;Temp;Humidity;BMP_temperature;BMP_pressure;BME280_temperature;BME280_humidity;BME280_pressure;Samples;Min_cycle;Max_cycle;Signal;HPM_P1;HPM_P2
2024/01/15 00:01:09;;;;;;;0.50;0.50;;;;;;;0.93;69.07;98582.69;5108489;28;20201;-62
2024/01/15 00:03:35;;;;;;;1.07;0.70;;;;;;;1.12;67.43;98578.53;5108642;28;20721;-63
2024/01/15 00:06:02;;;;;;;0.33;0.33;;;;;;;1.11;68.29;98576.91;5109081;28;20224;-63
2024/01/15 00:08:29;;;;;;;0.80;0.73;;;;;;;1.27;67.07;98587.97;5108817;28;20200;-62
2024/01/15 00:10:56;;;;;;;3.20;0.80;;;;;;;1.21;67.41;98588.22;5108708;28;20225;-63
2024/01/15 00:13:23;;;;;;;1.23;0.53;;;;;;;1.45;65.26;98580.50;5108748;28;20205;-63
2024/01/15 00:15:51;;;;;;;0.40;0.40;;;;;;;1.52;64.62;98572.63;5108806;28;20600;-63
2024/01/15 00:18:18;;;;;;;0.77;0.67;;;;;;;1.45;64.76;98583.84;5108970;28;20225;-63
2024/01/15 00:20:44;;;;;;;2.47;1.57;;;;;;;1.27;66.45;98577.06;5108721;28;20205;-63
2024/01/15 00:23:11;;;;;;;0.30;0.30;;;;;;;1.31;65.97;98578.59;5108695;28;20655;-62
2024/01/15 00:25:38;;;;;;;1.10;0.83;;;;;;;1.31;66.00;98576.91;5108862;28;20198;-62
2024/01/15 00:28:06;;;;;;;0.60;0.60;;;;;;;1.28;66.57;98579.53;5108903;28;20193;-62
2024/01/15 00:30:32;;;;;;;1.40;0.80;;;;;;;1.40;65.94;98578.19;5108682;28;20194;-62
2024/01/15 00:33:01;;;;;;;0.60;0.60;;;;;;;1.23;66.96;98568.84;5108566;28;20201;-62
2024/01/15 00:35:27;;;;;;;0.50;0.50;;;;;;;1.19;67.80;98569.03;5108502;28;20201;-62
2024/01/15 00:37:54;;;;;;;1.27;0.83;;;;;;;1.10;69.40;98565.19;5108279;28;20229;-63
2024/01/15 00:40:21;;;;;;;0.67;0.67;;;;;;;1.20;67.81;98568.16;5108630;28;20198;-62
2024/01/15 00:42:48;;;;;;;0.30;0.30;;;;;;;1.24;68.28;98567.13;5108345;28;20221;-63
2024/01/15 00:45:15;;;;;;;1.07;0.80;;;;;;;1.44;66.34;98559.53;5108828;28;20209;-62
2024/01/15 00:47:42;;;;;;;3.10;0.90;;;;;;;1.52;66.24;98567.59;5108433;28;20197;-62
2024/01/15 00:50:10;;;;;;;2.73;0.93;;;;;;;1.41;67.53;98568.94;5108487;28;20705;-62
2024/01/15 00:52:37;;;;;;;0.67;0.67;;;;;;;1.40;67.48;98560.56;5108526;28;20186;-62
2024/01/15 00:55:05;;;;;;;0.93;0.93;;;;;;;1.46;67.98;98556.97;5108546;28;20240;-62
2024/01/15 00:57:32;;;;;;;2.23;1.37;;;;;;;1.52;67.15;98551.66;5108535;28;20204;-62
2024/01/15 00:59:59;;;;;;;0.40;0.40;;;;;;;1.49;67.39;98556.84;5108419;28;20220;-62
2024/01/15 01:02:27;;;;;;;0.70;0.70;;;;;;;1.49;68.08;98554.31;5108352;28;20198;-62
2024/01/15 01:04:54;;;;;;;1.80;1.03;;;;;;;1.54;67.85;98542.31;5108184;28;20197;-62
2024/01/15 01:07:22;;;;;;;0.57;0.47;;;;;;;1.55;67.61;98542.25;5108539;28;20193;-62
2024/01/15 01:09:50;;;;;;;0.50;0.50;;;;;;;1.62;67.70;98541.97;5108439;28;20209;-62
2024/01/15 01:12:17;;;;;;;2.33;0.40;;;;;;;1.63;67.12;98531.84;5108590;28;20197;-62
2024/01/15 01:14:44;;;;;;;1.17;1.07;;;;;;;1.64;67.26;98530.94;5111862;28;20220;-62
2024/01/15 01:17:11;;;;;;;0.57;0.57;;;;;;;1.50;68.54;98526.53;5111902;28;20209;-62
2024/01/15 01:19:38;;;;;;;1.83;1.40;;;;;;;1.41;69.15;98534.50;5111690;28;20247;-63
2024/01/15 01:22:05;;;;;;;0.80;0.70;;;;;;;1.23;71.05;98530.25;5111976;28;20208;-62
2024/01/15 01:24:33;;;;;;;0.40;0.40;;;;;;;1.48;69.77;98533.31;5111626;28;20737;-62
2024/01/15 01:27:00;;;;;;;1.00;0.60;;;;;;;1.62;69.06;98530.19;5111600;28;20197;-62
2024/01/15 01:29:27;;;;;;;1.13;1.03;;;;;;;1.83;68.07;98525.88;5111674;28;20190;-62
2024/01/15 01:31:54;;;;;;;0.77;0.77;;;;;;;1.63;69.62;98524.28;5111533;28;20197;-63
2024/01/15 01:34:20;;;;;;;0.90;0.90;;;;;;;1.84;68.16;98525.00;5111832;28;20210;-63
2024/01/15 01:36:47;;;;;;;1.03;0.73;;;;;;;1.97;67.32;98515.97;5111757;28;20200;-63
2024/01/15 01:39:14;;;;;;;1.47;1.17;;;;;;;1.96;67.74;98516.88;5111200;28;20247;-62
2024/01/15 01:41:42;;;;;;;2.23;1.20;;;;;;;1.90;67.66;98517.16;5111568;28;20236;-62
2024/01/15 01:44:09;;;;;;;1.70;1.07;;;;;;;2.14;66.53;98509.34;5111269;27;20190;-63
2024/01/15 01:46:39;;;;;;;1.33;0.90;;;;;;;2.00;68.15;98505.75;5111008;28;20209;-62
2024/01/15 01:49:07;;;;;;;0.97;0.80;;;;;;;1.90;68.50;98521.41;5111449;28;20205;-62
2024/01/15 01:51:35;;;;;;;1.60;1.23;;;;;;;1.87;68.66;98517.31;5111135;28;20431;-63
2024/01/15 01:54:02;;;;;;;4.63;0.93;;;;;;;1.96;68.66;98511.03;5111353;28;20201;-63
2024/01/15 01:56:29;;;;;;;0.70;0.70;;;;;;;1.91;69.11;98516.28;5111013;28;20208;-62
2024/01/15 01:58:57;;;;;;;1.10;0.90;;;;;;;2.01;67.72;98509.13;5110912;28;20229;-63
2024/01/15 02:01:24;;;;;;;0.90;0.80;;;;;;;2.28;66.43;98511.22;5111036;28;20589;-62
2024/01/15 02:03:51;;;;;;;0.90;0.80;;;;;;;2.25;67.31;98507.13;5110929;28;20568;-63
2024/01/15 02:06:19;;;;;;;0.60;0.60;;;;;;;2.20;66.24;98504.00;5110862;28;20670;-63
2024/01/15 02:08:46;;;;;;;0.97;0.77;;;;;;;2.16;67.28;98507.59;5110950;27;20208;-63
2024/01/15 02:11:12;;;;;;;0.37;0.37;;;;;;;1.98;67.66;98494.94;5110796;28;20446;-63
2024/01/15 02:13:40;;;;;;;1.20;1.10;;;;;;;1.94;68.25;98488.41;5111068;28;20205;-62
2024/01/15 02:16:08;;;;;;;1.30;1.20;;;;;;;1.98;67.39;98492.44;5110821;28;20201;-63
2024/01/15 02:18:41;;;;;;;0.70;0.70;;;;;;;1.86;68.35;98484.59;5111253;28;20229;-63
2024/01/15 02:21:08;;;;;;;2.83;1.07;;;;;;;1.83;68.86;98484.75;5110941;28;20193;-63
2024/01/15 02:23:36;;;;;;;2.40;1.33;;;;;;;1.81;69.09;98487.34;5110301;28;20209;-63
2024/01/15 02:26:04;;;;;;;0.83;0.83;;;;;;;1.69;69.86;98490.44;5110424;28;20217;-63
2024/01/15 02:28:31;;;;;;;1.30;1.20;;;;;;;1.70;69.08;98495.41;5110693;28;20229;-63
2024/01/15 02:30:58;;;;;;;0.57;0.57;;;;;;;1.64;70.81;98490.63;5110503;28;20200;-63
2024/01/15 02:33:25;;;;;;;1.30;1.10;;;;;;;1.73;70.47;98484.38;5110198;28;20201;-63
2024/01/15 02:35:52;;;;;;;1.90;1.20;;;;;;;1.67;71.93;98487.97;5110231;28;20197;-63
2024/01/15 02:38:19;;;;;;;2.50;1.30;;;;;;;1.72;70.52;98470.13;5110320;28;20241;-63
2024/01/15 02:40:48;;;;;;;1.53;0.93;;;;;;;1.80;71.40;98473.09;5108891;28;20624;-63
2024/01/15 02:43:15;;;;;;;1.07;0.80;;;;;;;1.67;71.76;98482.94;5109905;28;20701;-63
2024/01/15 02:45:42;;;;;;;0.80;0.80;;;;;;;1.51;73.07;98475.28;5110478;28;20211;-63
2024/01/15 02:48:09;;;;;;;1.57;0.87;;;;;;;1.50;72.63;98473.63;5110253;28;20670;-63
2024/01/15 02:50:36;;;;;;;7.20;1.53;;;;;;;1.61;72.52;98464.78;5110391;28;20209;-63
2024/01/15 02:53:03;;;;;;;1.53;1.43;;;;;;;1.62;72.52;98467.22;5110021;28;20200;-63
2024/01/15 02:55:30;;;;;;;1.07;0.87;;;;;;;1.66;72.22;98468.72;5092068;28;20201;-63
2024/01/15 02:57:58;;;;;;;1.53;1.10;;;;;;;1.84;70.75;98462.00;5109841;28;20197;-62
2024/01/15 03:00:25;;;;;;;1.37;0.87;;;;;;;1.80;70.59;98466.38;5110032;28;20197;-63
2024/01/15 03:02:52;;;;;;;0.57;0.57;;;;;;;1.73;71.45;98464.19;5109818;28;20201;-63
2024/01/15 03:05:22;;;;;;;1.67;0.93;;;;;;;1.55;72.91;98465.88;5110006;28;20197;-63
2024/01/15 03:07:52;;;;;;;0.87;0.87;;;;;;;1.57;73.67;98454.84;5109973;28;20304;-63
2024/01/15 03:10:25;;;;;;;1.30;0.97;;;;;;;1.41;74.40;98453.88;5109875;28;20225;-63
2024/01/15 03:12:56;;;;;;;2.63;1.13;;;;;;;1.62;72.87;98442.00;5109717;28;20353;-63
2024/01/15 03:15:24;;;;;;;1.40;1.10;;;;;;;1.71;72.88;98451.66;5110040;28;20193;-62
2024/01/15 03:17:50;;;;;;;1.83;0.70;;;;;;;1.86;72.90;98444.28;5109499;28;20197;-63
2024/01/15 03:20:17;;;;;;;0.90;0.90;;;;;;;1.97;73.15;98440.34;5109565;28;20631;-63
2024/01/15 03:22:44;;;;;;;0.67;0.60;;;;;;;2.04;72.21;98444.22;5109688;28;20208;-63
2024/01/15 03:25:11;;;;;;;0.87;0.83;;;;;;;2.06;71.72;98435.75;5109972;28;20205;-63
2024/01/15 03:27:38;;;;;;;0.80;0.80;;;;;;;2.16;71.02;98431.94;5109346;28;20197;-63
2024/01/15 03:30:05;;;;;;;2.10;0.77;;;;;;;2.07;71.77;98427.34;5109290;28;20587;-63
2024/01/15 03:32:33;;;;;;;1.50;1.27;;;;;;;2.07;72.21;98433.19;5109280;28;20209;-62
2024/01/15 03:35:00;;;;;;;1.07;0.87;;;;;;;2.03;72.02;98417.38;5108844;28;20534;-63
2024/01/15 03:37:31;;;;;;;0.70;0.60;;;;;;;1.90;73.63;98421.38;5109185;28;20201;-63
2024/01/15 03:39:58;;;;;;;0.70;0.70;;;;;;;1.78;74.19;98417.75;5109107;28;20786;-63
2024/01/15 03:42:25;;;;;;;1.30;1.07;;;;;;;1.59;75.98;98420.28;5109214;28;20201;-63
2024/01/15 03:44:52;;;;;;;1.43;0.93;;;;;;;1.73;76.03;98419.66;5109185;28;20197;-63
2024/01/15 03:47:18;;;;;;;2.07;1.30;;;;;;;1.83;75.54;98414.97;5109113;28;20212;-63
2024/01/15 03:49:46;;;;;;;1.40;1.13;;;;;;;1.83;75.55;98414.97;5108998;28;20609;-63
2024/01/15 03:52:13;;;;;;;1.13;1.03;;;;;;;1.76;76.82;98413.66;5108958;28;20702;-63
2024/01/15 03:54:40;;;;;;;1.30;1.10;;;;;;;1.67;77.59;98409.88;5109172;28;20212;-63
2024/01/15 03:57:07;;;;;;;2.23;0.83;;;;;;;1.96;75.91;98411.00;5109007;28;20197;-63
2024/01/15 03:59:34;;;;;;;0.63;0.63;;;;;;;2.32;75.19;98405.03;5108748;28;20233;-63
2024/01/15 04:02:20;;;;;;;1.30;0.67;;;;;;;2.46;72.97;98410.22;5109160;28;20197;-63
2024/01/15 04:04:49;;;;;;;0.60;0.60;;;;;;;2.54;73.01;98414.09;5065649;28;20419;-63
2024/01/15 04:07:15;;;;;;;1.30;1.00;;;;;;;2.43;73.67;98404.53;5065707;28;20203;-63
2024/01/15 04:09:42;;;;;;;1.87;1.20;;;;;;;2.46;73.32;98404.38;5065830;28;20202;-63
2024/01/15 04:12:09;;;;;;;1.67;0.77;;;;;;;2.51;73.79;98406.69;5065855;28;20209;-63
2024/01/15 04:14:36;;;;;;;3.67;1.27;;;;;;;2.48;73.07;98410.16;5065797;28;20199;-63
2024/01/15 04:17:02;;;;;;;4.27;1.27;;;;;;;2.61;72.68;98407.81;5065552;28;20218;-63
2024/01/15 04:19:29;;;;;;;2.17;1.20;;;;;;;2.45;73.22;98413.66;5065509;28;20242;-63
2024/01/15 04:21:57;;;;;;;0.60;0.60;;;;;;;2.35;73.82;98409.94;5065556;28;20710;-63
2024/01/15 04:24:24;;;;;;;1.17;1.00;;;;;;;2.48;72.71;98408.44;5065709;28;20844;-63
2024/01/15 04:26:51;;;;;;;0.70;0.53;;;;;;;2.33;74.11;98399.13;5065567;28;20195;-63
2024/01/15 04:29:18;;;;;;;0.53;0.53;;;;;;;2.29;75.19;98407.72;5085072;28;20197;-63
2024/01/15 04:31:44;;;;;;;0.63;0.63;;;;;;;2.31;75.13;98400.91;5108577;28;20216;-63
2024/01/15 04:34:11;;;;;;;0.53;0.53;;;;;;;2.29;75.50;98402.69;5109218;28;20201;-63
2024/01/15 04:36:40;;;;;;;2.13;1.23;;;;;;;2.27;76.39;98399.44;5108516;28;20599;-63
2024/01/15 04:39:08;;;;;;;1.40;0.73;;;;;;;2.24;76.62;98402.09;5108515;28;20806;-63
2024/01/15 04:41:35;;;;;;;1.03;0.70;;;;;;;2.28;75.80;98401.06;5108519;28;20225;-63
2024/01/15 04:44:02;;;;;;;0.53;0.53;;;;;;;2.19;76.39;98396.47;5108481;28;20205;-63
2024/01/15 04:46:29;;;;;;;0.60;0.60;;;;;;;2.18;76.17;98394.81;5109183;28;20206;-63
2024/01/15 04:48:56;;;;;;;1.87;0.77;;;;;;;2.19;76.90;98392.25;5112658;28;20208;-63
2024/01/15 04:51:23;;;;;;;0.53;0.53;;;;;;;2.18;76.26;98385.56;5112772;28;20661;-63
2024/01/15 04:53:49;;;;;;;2.07;1.30;;;;;;;2.05;77.13;98389.56;5112748;28;20209;-63
2024/01/15 04:56:18;;;;;;;1.83;0.73;;;;;;;1.97;78.38;98386.59;5112347;27;20666;-63
2024/01/15 04:58:44;;;;;;;2.07;1.20;;;;;;;1.95;79.07;98383.34;5112136;28;20205;-63
2024/01/15 05:01:11;;;;;;;1.00;0.70;;;;;;;1.96;79.11;98383.28;5112230;28;20208;-63
2024/01/15 05:03:39;;;;;;;0.67;0.67;;;;;;;2.10;78.59;98379.28;5112304;28;20201;-63
2024/01/15 05:06:06;;;;;;;1.33;0.73;;;;;;;2.06;78.35;98375.25;5112282;28;20286;-63
2024/01/15 05:08:33;;;;;;;0.87;0.60;;;;;;;2.05;79.25;98369.41;5112150;28;20208;-63
2024/01/15 05:10:59;;;;;;;1.10;0.97;;;;;;;2.11;79.22;98370.81;5112039;28;20214;-63
2024/01/15 05:13:27;;;;;;;3.13;1.50;;;;;;;2.09;79.56;98362.50;5112073;28;20197;-63
2024/01/15 05:15:54;;;;;;;1.23;1.03;;;;;;;2.12;80.19;98359.81;5111888;28;20205;-63
2024/01/15 05:18:21;;;;;;;0.93;0.63;;;;;;;2.27;79.11;98369.16;5112445;27;20202;-63
2024/01/15 05:20:48;;;;;;;0.87;0.60;;;;;;;2.30;78.45;98369.03;5112207;28;20336;-63
2024/01/15 05:23:15;;;;;;;1.30;0.70;;;;;;;2.70;76.81;98364.44;5111851;28;20201;-62
2024/01/15 05:25:42;;;;;;;0.70;0.47;;;;;;;2.49;77.21;98354.56;5111714;28;20220;-63
2024/01/15 05:28:09;;;;;;;0.87;0.77;;;;;;;2.42;78.46;98358.31;5112040;28;20200;-63
2024/01/15 05:30:37;;;;;;;3.83;2.10;;;;;;;2.57;76.77;98369.31;5111654;28;20232;-63
2024/01/15 05:33:04;;;;;;;0.43;0.40;;;;;;;2.38;77.85;98361.84;5111604;28;20205;-63
2024/01/15 05:35:31;;;;;;;0.43;0.43;;;;;;;2.33;77.73;98363.81;5111788;28;20194;-63
2024/01/15 05:37:57;;;;;;;0.87;0.87;;;;;;;2.13;79.60;98364.00;5111539;28;20494;-63
2024/01/15 05:40:24;;;;;;;0.33;0.33;;;;;;;2.24;79.17;98356.69;5111470;28;20232;-63
2024/01/15 05:42:51;;;;;;;0.90;0.67;;;;;;;2.09;79.35;98349.91;5111338;28;20217;-62
2024/01/15 05:45:18;;;;;;;0.77;0.60;;;;;;;1.97;79.61;98347.09;5111334;28;20597;-63
2024/01/15 05:47:46;;;;;;;1.27;0.97;;;;;;;1.92;80.10;98344.00;5111180;28;20601;-63
2024/01/15 05:50:13;;;;;;;0.50;0.50;;;;;;;1.91;80.21;98342.34;5111313;28;20205;-63
2024/01/15 05:52:40;;;;;;;0.50;0.50;;;;;;;1.90;80.60;98343.25;5111488;28;20200;-63
2024/01/15 05:55:07;;;;;;;0.63;0.63;;;;;;;1.89;80.74;98344.16;5111575;28;20212;-63
2024/01/15 05:57:34;;;;;;;1.17;0.70;;;;;;;2.14;78.97;98337.88;5111312;28;20196;-63
2024/01/15 06:00:01;;;;;;;0.63;0.63;;;;;;;2.13;79.67;98337.06;5110264;28;20232;-63
2024/01/15 06:02:28;;;;;;;1.60;0.90;;;;;;;2.01;80.36;98343.53;5111301;28;20567;-63
2024/01/15 06:04:56;;;;;;;6.53;1.00;;;;;;;1.91;81.78;98336.50;5111028;28;20216;-63
2024/01/15 06:07:23;;;;;;;2.27;0.60;;;;;;;1.96;81.13;98342.94;5110941;28;20671;-63
2024/01/15 06:09:50;;;;;;;2.07;1.23;;;;;;;2.21;79.95;98339.19;5111031;28;20274;-63
2024/01/15 06:12:17;;;;;;;1.83;1.30;;;;;;;2.13;79.87;98336.25;5110826;28;20197;-63
2024/01/15 06:14:44;;;;;;;2.17;1.10;;;;;;;2.39;78.82;98338.28;5110724;28;20197;-63
2024/01/15 06:17:10;;;;;;;2.80;0.80;;;;;;;2.39;78.12;98333.22;5110676;28;20209;-63
2024/01/15 06:19:38;;;;;;;1.60;0.90;;;;;;;2.44;78.60;98336.34;5110679;28;20644;-63
2024/01/15 06:22:06;;;;;;;2.00;0.50;;;;;;;2.45;78.51;98332.91;5110634;28;20228;-63
2024/01/15 06:24:33;;;;;;;1.60;0.80;;;;;;;2.56;77.90;98339.94;5110777;28;20201;-63
2024/01/15 06:27:00;;;;;;;1.43;0.73;;;;;;;2.49;78.57;98331.03;5110579;28;20288;-63
2024/01/15 06:29:27;;;;;;;0.80;0.80;;;;;;;2.70;76.97;98331.63;5110688;28;20213;-63
2024/01/15 06:31:54;;;;;;;1.13;0.90;;;;;;;2.84;74.50;98324.16;5110462;28;20635;-62
2024/01/15 06:34:21;;;;;;;0.73;0.73;;;;;;;2.95;74.34;98321.88;5110471;28;20223;-62
2024/01/15 06:36:48;;;;;;;1.13;1.00;;;;;;;2.92;73.68;98317.00;5110604;28;20201;-64
2024/01/15 06:39:16;;;;;;;1.67;1.50;;;;;;;2.93;75.23;98312.75;5110510;28;20197;-63
2024/01/15 06:41:44;;;;;;;1.83;1.10;;;;;;;2.89;74.90;98322.22;5110320;28;20228;-63
2024/01/15 06:44:11;;;;;;;0.80;0.80;;;;;;;2.86;75.32;98311.47;5110246;28;20258;-63
2024/01/15 06:46:42;;;;;;;1.73;1.13;;;;;;;2.89;75.07;98322.22;5110223;28;20257;-63
2024/01/15 06:49:09;;;;;;;0.60;0.60;;;;;;;2.93;75.86;98318.59;5110154;28;20197;-63
2024/01/15 06:51:36;;;;;;;2.67;1.13;;;;;;;3.00;75.78;98323.34;5110450;28;20208;-63
2024/01/15 06:54:03;;;;;;;1.53;1.37;;;;;;;3.02;75.88;98319.03;5109945;28;20678;-63
2024/01/15 06:56:32;;;;;;;0.87;0.87;;;;;;;3.21;75.00;98317.13;5109970;28;20224;-63
2024/01/15 06:58:59;;;;;;;1.23;0.87;;;;;;;3.14;75.28;98318.34;5109718;27;20197;-63
2024/01/15 07:01:25;;;;;;;1.10;0.80;;;;;;;3.21;74.93;98317.13;5110063;28;20581;-63
2024/01/15 07:03:52;;;;;;;0.63;0.63;;;;;;;3.16;75.06;98324.16;5109873;28;20202;-63
2024/01/15 07:06:19;;;;;;;0.60;0.60;;;;;;;3.21;75.87;98327.25;5109658;28;20201;-63
2024/01/15 07:08:47;;;;;;;2.00;1.50;;;;;;;3.33;76.40;98326.56;5109687;28;20204;-63
2024/01/15 07:11:13;;;;;;;2.30;1.43;;;;;;;3.40;75.44;98317.75;5108932;28;20205;-63
2024/01/15 07:13:42;;;;;;;1.47;1.20;;;;;;;3.57;75.64;98313.47;5109575;28;20193;-63
2024/01/15 07:16:09;;;;;;;0.97;0.83;;;;;;;3.65;74.19;98318.91;5109658;28;20205;-63
2024/01/15 07:18:35;;;;;;;0.80;0.70;;;;;;;3.73;73.06;98316.78;5109436;28;20288;-63
2024/01/15 07:21:04;;;;;;;1.07;0.73;;;;;;;3.95;71.35;98323.13;5109408;28;20229;-63
2024/01/15 07:23:32;;;;;;;1.57;1.10;;;;;;;3.91;69.86;98321.69;5109726;28;20205;-63
2024/01/15 07:25:59;;;;;;;1.30;1.20;;;;;;;4.06;70.51;98320.78;5109361;28;20220;-63
2024/01/15 07:28:26;;;;;;;0.80;0.80;;;;;;;4.20;69.02;98323.34;5109475;28;20193;-63
2024/01/15 07:30:54;;;;;;;1.17;0.93;;;;;;;4.46;69.70;98323.53;5109481;28;20204;-63
2024/01/15 07:33:21;;;;;;;1.83;1.10;;;;;;;4.70;67.64;98334.69;5109794;28;20193;-63
2024/01/15 07:35:47;;;;;;;0.80;0.80;;;;;;;5.00;66.68;98328.66;5109297;28;20208;-63
2024/01/15 07:38:14;;;;;;;1.60;1.03;;;;;;;5.06;64.58;98328.31;5109368;28;20236;-63
2024/01/15 07:40:41;;;;;;;2.13;1.00;;;;;;;5.24;63.90;98323.00;5108903;28;20228;-63
2024/01/15 07:43:08;;;;;;;2.30;1.07;;;;;;;5.29;62.95;98321.78;5109111;28;20635;-63
2024/01/15 07:45:37;;;;;;;1.23;0.77;;;;;;;5.50;62.76;98322.16;5109302;28;20220;-64
2024/01/15 07:48:07;;;;;;;1.30;1.00;;;;;;;5.76;62.30;98323.03;5109465;28;20197;-63
2024/01/15 07:50:34;;;;;;;0.97;0.87;;;;;;;5.96;60.96;98323.47;5109247;28;20212;-63
2024/01/15 07:53:01;;;;;;;2.43;1.57;;;;;;;6.11;60.01;98313.13;5109087;28;20220;-63
2024/01/15 07:55:28;;;;;;;1.30;1.00;;;;;;;6.09;59.12;98314.97;5107708;28;20201;-63
2024/01/15 07:57:58;;;;;;;2.13;1.30;;;;;;;6.40;58.08;98312.91;5108934;28;20588;-63
2024/01/15 08:00:25;;;;;;;1.60;1.27;;;;;;;6.19;57.58;98296.56;5108999;28;20670;-63
2024/01/15 08:02:52;;;;;;;2.37;1.70;;;;;;;6.01;58.14;98286.72;5109204;28;20200;-63
2024/01/15 08:05:22;;;;;;;1.20;1.10;;;;;;;5.97;58.81;98285.31;5108921;28;20759;-63
2024/01/15 08:07:50;;;;;;;0.90;0.83;;;;;;;5.98;58.13;98286.94;5107619;28;20197;-63
2024/01/15 08:10:17;;;;;;;1.07;0.97;;;;;;;6.10;57.74;98290.38;5108935;28;20201;-63
2024/01/15 08:12:46;;;;;;;2.67;1.27;;;;;;;6.24;57.36;98282.66;5108412;28;20670;-63
2024/01/15 08:15:13;;;;;;;3.37;1.87;;;;;;;6.23;57.62;98290.41;5108858;28;20201;-63
2024/01/15 08:17:39;;;;;;;2.03;1.50;;;;;;;6.21;58.37;98294.75;5108801;28;20197;-63
2024/01/15 08:20:07;;;;;;;2.50;1.33;;;;;;;6.09;58.44;98287.03;5108866;28;20618;-63
2024/01/15 08:22:35;;;;;;;1.30;1.20;;;;;;;6.11;58.04;98287.75;5110771;28;20678;-62
2024/01/15 08:25:03;;;;;;;1.70;1.40;;;;;;;6.06;58.41;98289.78;5112904;28;20725;-63
2024/01/15 08:27:30;;;;;;;4.67;1.97;;;;;;;6.16;58.23;98279.00;5112970;28;20193;-63
2024/01/15 08:29:57;;;;;;;5.63;3.20;;;;;;;6.24;58.78;98281.84;5112959;28;20193;-63
2024/01/15 08:32:24;;;;;;;1.93;1.40;;;;;;;6.36;57.86;98281.03;5112720;27;20193;-63
2024/01/15 08:34:52;;;;;;;3.30;2.20;;;;;;;6.40;57.73;98282.44;5112992;28;20208;-63
2024/01/15 08:37:19;;;;;;;2.67;1.90;;;;;;;6.60;58.17;98285.34;5112734;28;20228;-63
2024/01/15 08:39:47;;;;;;;2.40;1.40;;;;;;;6.79;57.36;98293.31;5112434;28;20201;-63
2024/01/15 08:42:14;;;;;;;1.13;0.93;;;;;;;6.80;56.56;98295.75;5112596;27;20709;-63
2024/01/15 08:44:43;;;;;;;2.43;1.40;;;;;;;7.08;57.45;98293.00;5112739;28;20208;-63
2024/01/15 08:47:09;;;;;;;3.07;1.10;;;;;;;7.30;57.18;98277.88;5112559;28;20204;-63
2024/01/15 08:49:36;;;;;;;1.00;0.90;;;;;;;7.45;56.73;98275.94;5112562;28;20197;-63
2024/01/15 08:52:03;;;;;;;1.27;0.83;;;;;;;7.56;56.23;98285.31;5112352;28;20286;-63
2024/01/15 08:54:30;;;;;;;1.53;0.80;;;;;;;7.59;56.29;98280.00;5112361;28;20197;-63
2024/01/15 08:56:59;;;;;;;1.90;1.10;;;;;;;7.69;55.81;98280.97;5112132;28;20204;-63
2024/01/15 08:59:26;;;;;;;3.83;1.07;;;;;;;7.29;55.08;98275.41;5112262;28;20201;-63
2024/01/15 09:01:53;;;;;;;1.67;1.13;;;;;;;7.19;56.03;98271.00;5112156;28;20256;-63
2024/01/15 09:04:20;;;;;;;2.20;1.73;;;;;;;6.98;54.98;98275.88;5112358;28;20212;-62
2024/01/15 09:06:47;;;;;;;1.20;1.10;;;;;;;6.72;55.66;98259.91;5112303;28;20198;-63
2024/01/15 09:09:14;;;;;;;1.10;1.00;;;;;;;6.50;56.35;98247.88;5112375;28;20232;-62
2024/01/15 09:11:41;;;;;;;1.33;1.13;;;;;;;6.23;57.77;98247.25;5111805;28;20610;-63
2024/01/15 09:14:09;;;;;;;3.63;1.67;;;;;;;6.01;58.08;98241.06;5111940;28;20215;-62
2024/01/15 09:16:36;;;;;;;3.07;0.90;;;;;;;5.99;58.54;98234.47;5111930;28;20197;-61
2024/01/15 09:19:03;;;;;;;1.47;1.33;;;;;;;5.88;59.16;98240.25;5111910;28;20201;-64
2024/01/15 09:21:30;;;;;;;1.97;0.93;;;;;;;5.85;59.00;98240.44;5111740;28;20390;-64
2024/01/15 09:23:58;;;;;;;1.63;1.07;;;;;;;5.82;59.01;98230.50;5111651;28;20201;-64
2024/01/15 09:26:25;;;;;;;0.80;0.73;;;;;;;5.83;58.91;98227.03;5111795;28;20193;-64
2024/01/15 09:28:52;;;;;;;1.33;0.93;;;;;;;5.78;59.35;98213.84;5111853;28;20197;-64
2024/01/15 09:31:21;;;;;;;0.80;0.80;;;;;;;5.85;58.93;98215.88;5111692;28;20201;-64
2024/01/15 09:33:48;;;;;;;0.87;0.70;;;;;;;5.85;59.68;98202.41;5110558;28;20206;-64
2024/01/15 09:36:15;;;;;;;0.70;0.70;;;;;;;5.94;60.24;98193.38;5111587;28;20205;-64
2024/01/15 09:38:42;;;;;;;2.50;1.27;;;;;;;6.13;59.63;98186.94;5111626;27;20211;-64
2024/01/15 09:41:09;;;;;;;1.73;1.50;;;;;;;6.28;58.40;98184.25;5111584;28;20269;-64
2024/01/15 09:43:38;;;;;;;3.60;1.83;;;;;;;6.51;57.79;98178.38;5111406;28;20227;-64
2024/01/15 09:46:05;;;;;;;1.87;1.43;;;;;;;6.74;57.28;98173.44;5111587;28;20197;-64
2024/01/15 09:48:34;;;;;;;1.87;0.93;;;;;;;6.96;56.89;98160.81;5111235;28;20200;-64
2024/01/15 09:51:02;;;;;;;1.93;1.20;;;;;;;7.46;55.14;98151.19;5111498;28;20303;-64
2024/01/15 09:53:29;;;;;;;3.37;1.30;;;;;;;7.97;53.64;98141.47;5111058;28;20678;-64
2024/01/15 09:55:56;;;;;;;1.97;1.70;;;;;;;8.08;53.04;98147.34;5111216;28;20225;-64
2024/01/15 09:58:24;;;;;;;1.03;1.00;;;;;;;8.28;53.11;98148.38;5111356;28;20200;-64
2024/01/15 10:00:52;;;;;;;1.07;1.00;;;;;;;8.53;51.70;98146.50;5111274;28;20607;-64
2024/01/15 10:03:21;;;;;;;3.03;1.10;;;;;;;8.50;51.66;98136.53;5111681;28;20214;-64
2024/01/15 10:05:50;;;;;;;4.17;1.70;;;;;;;8.47;50.60;98129.16;5111011;27;20204;-63
2024/01/15 10:08:18;;;;;;;1.80;1.70;;;;;;;8.49;51.79;98117.06;5111193;28;20205;-64
2024/01/15 10:10:45;;;;;;;1.73;1.50;;;;;;;8.55;50.62;98108.94;5111023;28;20209;-62
2024/01/15 10:13:13;;;;;;;2.33;1.50;;;;;;;9.02;49.43;98102.59;5110786;28;20701;-64
2024/01/15 10:15:42;;;;;;;1.83;1.37;;;;;;;9.41;49.14;98101.97;5110839;28;20666;-64
2024/01/15 10:18:09;;;;;;;2.10;1.30;;;;;;;9.77;47.95;98099.81;5110803;28;20194;-64
2024/01/15 10:20:36;;;;;;;1.97;1.40;;;;;;;10.09;47.82;98097.88;5110895;28;20247;-64
2024/01/15 10:23:05;;;;;;;1.70;1.23;;;;;;;10.06;46.56;98097.31;5110466;28;20202;-64
2024/01/15 10:25:32;;;;;;;2.50;1.43;;;;;;;9.63;47.65;98086.50;5110774;28;20254;-63
2024/01/15 10:28:03;;;;;;;2.17;1.67;;;;;;;9.28;48.42;98082.59;5110450;28;20200;-65
2024/01/15 10:30:30;;;;;;;2.30;1.37;;;;;;;9.17;48.85;98077.56;5110457;28;20713;-64
2024/01/15 10:33:01;;;;;;;2.47;1.57;;;;;;;9.30;48.80;98065.41;5110312;28;20568;-64
2024/01/15 10:35:29;;;;;;;2.47;1.70;;;;;;;9.31;48.58;98073.88;5110507;28;20588;-64
2024/01/15 10:37:56;;;;;;;4.03;1.87;;;;;;;9.50;48.46;98065.47;5110240;28;20202;-64
2024/01/15 10:40:24;;;;;;;3.30;1.80;;;;;;;10.06;47.91;98062.38;5110204;28;20244;-64
2024/01/15 10:42:51;;;;;;;2.00;1.60;;;;;;;10.48;47.96;98057.06;5110070;28;20685;-64
2024/01/15 10:45:18;;;;;;;1.67;1.30;;;;;;;10.29;47.28;98057.84;5110059;28;20197;-64
2024/01/15 10:47:45;;;;;;;1.87;1.33;;;;;;;10.48;46.66;98066.47;5110092;28;20201;-64
2024/01/15 10:50:13;;;;;;;1.90;1.40;;;;;;;10.59;47.77;98067.16;5110463;28;20213;-64
2024/01/15 10:52:41;;;;;;;1.83;1.23;;;;;;;10.77;46.77;98069.00;5110379;28;20201;-64
2024/01/15 10:55:09;;;;;;;2.67;1.20;;;;;;;10.81;47.33;98062.66;5110011;28;20722;-64
2024/01/15 10:57:38;;;;;;;1.30;1.20;;;;;;;10.58;46.29;98057.84;5110019;28;20604;-62
2024/01/15 11:00:07;;;;;;;1.97;1.40;;;;;;;10.64;48.04;98059.84;5109877;28;20682;-64
2024/01/15 11:02:35;;;;;;;2.53;1.30;;;;;;;10.98;47.23;98059.41;5109876;28;20624;-64
2024/01/15 11:05:04;;;;;;;2.13;1.30;;;;;;;10.90;46.30;98050.81;5109851;28;20193;-64
2024/01/15 11:07:31;;;;;;;2.70;1.70;;;;;;;10.78;46.33;98037.38;5109487;28;20227;-64
2024/01/15 11:09:59;;;;;;;2.27;1.60;;;;;;;10.90;47.48;98041.38;5109930;28;20201;-64
2024/01/15 11:12:26;;;;;;;2.47;1.40;;;;;;;10.94;46.96;98042.72;5109783;27;20273;-64
2024/01/15 11:15:05;;;;;;;2.17;1.40;;;;;;;11.01;46.61;98038.66;5109519;28;20206;-65
2024/01/15 11:17:59;;;;;;;1.50;1.10;;;;;;;10.74;46.66;98030.94;5109581;28;20197;-64
2024/01/15 11:20:26;;;;;;;1.23;1.07;;;;;;;10.17;47.86;98025.69;5109602;28;20258;-65
2024/01/15 11:22:53;;;;;;;4.87;2.30;;;;;;;9.89;49.33;98019.63;5109311;28;20714;-65
2024/01/15 11:25:20;;;;;;;6.53;2.93;;;;;;;9.55;49.25;98021.72;5109585;28;20769;-65
2024/01/15 11:27:51;;;;;;;3.33;2.10;;;;;;;9.34;48.61;98030.25;5109577;28;20699;-64
2024/01/15 11:30:20;;;;;;;3.03;1.57;;;;;;;9.15;49.76;98030.19;5110008;28;20250;-65
2024/01/15 11:32:47;;;;;;;2.17;1.40;;;;;;;8.75;50.04;98018.97;5109230;28;20201;-65
2024/01/15 11:35:15;;;;;;;1.87;1.40;;;;;;;8.49;50.84;97997.34;5109316;28;20674;-65
2024/01/15 11:38:01;;;;;;;1.83;1.33;;;;;;;8.26;51.40;98010.19;5109251;28;20208;-64
2024/01/15 11:40:42;;;;;;;1.97;1.73;;;;;;;7.99;51.97;98005.53;5109320;28;20201;-64
2024/01/15 11:43:10;;;;;;;3.37;2.40;;;;;;;7.81;52.82;98001.91;5109264;28;20201;-65